El Cerrito, CA (94530)

9:52 AM PDT on September 29, 2016 (GMT -0700)
| | Change Station

Elev -9999 ft 0.00 °N, 0.00 °E | Updated

Mostly Cloudy
Mostly Cloudy
55 °F
Feels Like 55 °F
N
9
Wind Variable Wind from SSW
Gusts mph

Today
High -- | Low -- °F
--% Chance of Precip.
Yesterday
High -- | Low -- °F
Precip. -- in
Pressure 30.08 in
Visibility 8.0 miles
Clouds Overcast 1000 ft
Dew Point 53 °F
Humidity 91%
Rainfall --
Snow Depth Not available.
7:03 AM 6:54 PM
Waning Crescent, 2% visible
METAR KOAK 291553Z 27004KT 8SM OVC010 15/12 A3008 RMK AO2 SLP184 T01500117
Pressure 30.08 in
Visibility 8.0 miles
Clouds Overcast 1000 ft
Dew Point 53 °F
Humidity 91%
Rainfall --
Snow Depth Not available.
7:03 AM 6:54 PM
Waning Crescent, 2% visible
METAR KOAK 291553Z 27004KT 8SM OVC010 15/12 A3008 RMK AO2 SLP184 T01500117

10-Day Weather Forecast

Almanac

Astronomy

Sep. 29, 2016 Rise Set
Actual Time
Civil Twilight
Nautical Twilight
Astronomical Twilight
Moon
Length of Visible Light
Length of Day
Tomorrow will be .
, % of the Moon is Illuminated

Today's Extremes

State Highs State Lows

Community

WunderPhotos

Upload Photos

1,942,520 photos uploaded!

WunderBlog® & News

Nearby

Air Quality

  Air Quality AQ Index Pollutant
Not available.

Snow Depth

Station Depth Elevation

Earthquake Activity

City Distance Mag. Time & Date
Minimum magnitude displayed is 2.5.

Coastal Water Temperatures

Place Temperature

Stations

Nearby Weather Stations

Station Location Temp. Windchill Dew Point Humidity Wind Precip. Elev Updated Type
                   

Watches & Warnings

There are currently no watches in effect.